Active alerts


No alerts

Webcam Webcam


Visit our other weather sites:

Template documentation
and downloads

And another site


Nearby METAR Reports

  
EBBR - Brussels International Airport, Belgium
Distance from station: W 9mi, 14km
Updated: Nov 20 2017 7:20 pm
Light drizzle rain, Mostly Cloudy
Light drizzle rain, Mostly Cloudy  
 Wind from SW
Wind: SW 8 mph , 13 km/h
Temperature:  50°F , 10°C
Wind Chill:  47°F , 8°C
Dew Point:  48°F , 9°C
Humidity :  94%
Barometer:  29.91 inHg , 1013 hPa
Summary:  Light Drizzle Rain
Clouds:  Mostly Cloudy
Visibility:   6 miles , 10 km
Cloud details:  Partly Cloudy 500 ft
Mostly Cloudy 600 ft
2017/11/21 00:20 EBBR 210020Z 23007KT 9999 -DZRA SCT005 BKN006 10/09 Q1013 NOSIG
EBBE - Beauvechain (Bevekom), Belgium
Distance from station: SSE 10mi, 17km
Updated: Nov 20 2017 7:25 pm
Mostly Cloudy
Mostly Cloudy  
 Wind from SW
Wind: SW 13 mph , 20 km/h
Temperature:  50°F , 10°C
Wind Chill:  45°F , 7°C
Dew Point:  48°F , 9°C
Humidity :  94%
Barometer:  29.91 inHg , 1013 hPa
Clouds:  Mostly Cloudy
Visibility:   4 miles , 6 km
Cloud details:  Partly Cloudy 300 ft
Mostly Cloudy 500 ft
Mostly Cloudy 700 ft
2017/11/21 00:25 EBBE 210025Z AUTO 23011KT 6000 SCT003/// BKN005/// BKN007/// 10/09 Q1013 YLO
EBDT - Schaffen, Belgium
Distance from station: ENE 18mi, 29km
Updated: Nov 20 2017 7:25 pm
Mostly Cloudy
Mostly Cloudy  
 Wind from SW
Wind: SW 8 mph , 13 km/h
Temperature:  52°F , 11°C
Dew Point:  50°F , 10°C
Humidity :  94%
Barometer:  29.91 inHg , 1013 hPa
Clouds:  Mostly Cloudy
Visibility:   4 miles , 7 km
Cloud details:  Partly Cloudy 600 ft
Mostly Cloudy 900 ft
Mostly Cloudy 1100 ft
2017/11/21 00:25 EBDT 210025Z AUTO 23007KT 7000 SCT006/// BKN009/// BKN011/// 11/10 Q1013 YLO
EBAW - Antwerp/Deurne, Belgium
Distance from station: NNW 23mi, 38km
Updated: Nov 20 2017 7:20 pm
Light Rain Showers, Overcast
Light Rain Showers, Overcast  
 Wind from WSW
Wind: WSW 8 mph , 13 km/h
Temperature:  54°F , 12°C
Dew Point:  50°F , 10°C
Humidity :  88%
Barometer:  29.91 inHg , 1013 hPa
Summary:  Light Rain Showers
Clouds:  Overcast
Visibility:   5 miles , 8 km
Cloud details:  Few Clouds 300 ft
Partly Cloudy 800 ft
Overcast 1000 ft
2017/11/21 00:20 EBAW 210020Z AUTO 25007KT 220V280 8000 -SHRA FEW003/// SCT008/// OVC010/// 12/10 Q1013
EBCI - Charleroi/Gosselies, Belgium
Distance from station: SSW 32mi, 51km
Updated: Nov 20 2017 7:20 pm
Drizzle, Mostly Cloudy
Drizzle, Mostly Cloudy  
 Wind from SW
Wind: SW 16 mph , 26 km/h
Temperature:  48°F , 9°C
Wind Chill:  42°F , 6°C
Dew Point:  48°F , 9°C
Humidity :  100%
Barometer:  29.94 inHg , 1014 hPa
Summary:  Drizzle
Clouds:  Mostly Cloudy
Visibility:   2 miles , 3 km
Cloud details:  Partly Cloudy 400 ft
Mostly Cloudy 700 ft
2017/11/21 00:20 EBCI 210020Z 23014KT 2500 DZ SCT004 BKN007 09/09 Q1014 NOSIG
EBLG - Bierset/Liege, Belgium
Distance from station: ESE 38mi, 60km
Updated: Nov 20 2017 7:20 pm
Mostly Cloudy
Mostly Cloudy  
 Wind from WSW
Wind: WSW 16 mph , 26 km/h
Temperature:  48°F , 9°C
Wind Chill:  42°F , 6°C
Dew Point:  46°F , 8°C
Humidity :  94%
Barometer:  29.91 inHg , 1013 hPa
Clouds:  Mostly Cloudy
Visibility:   5 miles , 8 km
Cloud details:  Mostly Cloudy 500 ft
Mostly Cloudy 600 ft
2017/11/21 00:20 EBLG 210020Z 24014KT 8000 BKN005 BKN006 09/08 Q1013 RERA REDZ TEMPO 2500 BKN004

Script developed by  Saratoga-weather.org Adapted for the template by  Weerstation Leuven

You find our weather info also at:


Weather Underground

Citizen Weather Observer Program (CWOP)

Equipment we use:


Weather-station
Davis VP2

Weather-program
Weather Display

Weather-server
My Computer

Provider
My provider

Davis VP2

Weather Display

My Computer

My provider